createdAt,value
2023-01-19T00:01:15.520Z,15.40
2023-01-19T00:03:44.205Z,14.57
2023-01-19T00:06:12.912Z,17.93
2023-01-19T00:08:41.553Z,14.73
2023-01-19T00:11:10.171Z,21.43
2023-01-19T00:13:40.614Z,22.60
2023-01-19T00:16:09.599Z,16.67
2023-01-19T00:18:38.242Z,15.40
2023-01-19T00:21:07.171Z,18.67
2023-01-19T00:23:35.751Z,17.90
2023-01-19T00:26:04.462Z,16.33
2023-01-19T00:28:33.030Z,17.60
2023-01-19T00:31:03.141Z,15.20
2023-01-19T00:33:31.864Z,17.53
2023-01-19T00:36:00.507Z,15.80
2023-01-19T00:38:29.124Z,14.60
2023-01-19T00:40:57.842Z,22.17
2023-01-19T00:43:25.429Z,13.87
2023-01-19T00:45:54.116Z,19.93
2023-01-19T00:48:24.135Z,15.90
2023-01-19T00:50:52.771Z,14.87
2023-01-19T00:53:21.375Z,12.07
2023-01-19T00:55:50.071Z,17.30
2023-01-19T00:58:18.727Z,17.47
2023-01-19T01:00:47.365Z,14.27
2023-01-19T01:03:16.132Z,22.10
2023-01-19T01:05:46.102Z,14.33
2023-01-19T01:08:14.633Z,17.07
2023-01-19T01:10:43.282Z,18.30
2023-01-19T01:13:20.898Z,13.40
2023-01-19T01:15:52.260Z,17.33
2023-01-19T01:18:21.527Z,15.17
2023-01-19T01:20:51.548Z,10.93
2023-01-19T01:23:23.058Z,18.80
2023-01-19T01:25:51.859Z,14.33
2023-01-19T01:28:20.441Z,19.47
2023-01-19T01:30:49.360Z,16.30
2023-01-19T01:33:41.128Z,15.73
2023-01-19T01:36:09.225Z,14.23
2023-01-19T01:38:38.757Z,19.03
2023-01-19T01:41:07.351Z,7.87
2023-01-19T01:43:47.287Z,15.57
2023-01-19T01:46:18.125Z,12.50
2023-01-19T01:48:52.281Z,18.87
2023-01-19T01:51:27.629Z,15.67
2023-01-19T01:54:14.924Z,15.57
2023-01-19T01:56:46.395Z,14.03
2023-01-19T01:59:26.183Z,22.43
2023-01-19T02:02:15.594Z,17.00
2023-01-19T02:04:48.872Z,19.20
2023-01-19T02:07:42.167Z,16.17
2023-01-19T02:10:29.062Z,18.57
2023-01-19T02:13:17.076Z,21.07
2023-01-19T02:15:46.064Z,24.03
2023-01-19T02:18:14.679Z,27.83
2023-01-19T02:20:49.048Z,20.33
2023-01-19T02:23:26.096Z,21.70
2023-01-19T02:25:56.317Z,22.00
2023-01-19T02:28:26.117Z,20.73
2023-01-19T02:30:54.819Z,30.23
2023-01-19T02:33:23.591Z,29.63
2023-01-19T02:35:53.500Z,24.97
2023-01-19T02:38:22.602Z,31.77
2023-01-19T02:40:51.868Z,30.03
2023-01-19T02:43:23.068Z,38.67
2023-01-19T02:45:52.635Z,28.10
2023-01-19T02:48:22.479Z,29.43
2023-01-19T02:50:53.761Z,29.67
2023-01-19T02:53:49.738Z,30.20
2023-01-19T02:56:37.439Z,33.83
2023-01-19T02:59:15.716Z,30.30
2023-01-19T03:02:16.828Z,34.73
2023-01-19T03:04:59.613Z,40.43
2023-01-19T03:07:39.502Z,39.73
2023-01-19T03:10:13.899Z,33.13
2023-01-19T03:12:47.551Z,38.27
2023-01-19T03:15:23.665Z,48.17
2023-01-19T03:17:54.481Z,40.63
2023-01-19T03:20:29.029Z,36.17
2023-01-19T03:23:03.285Z,36.20
2023-01-19T03:25:36.023Z,33.13
2023-01-19T03:28:06.411Z,42.70
2023-01-19T03:30:41.756Z,42.30
2023-01-19T03:33:14.717Z,45.10
2023-01-19T03:35:47.813Z,54.47
2023-01-19T03:38:20.038Z,50.07
2023-01-19T03:40:49.758Z,47.93
2023-01-19T03:43:19.893Z,44.73
2023-01-19T03:45:50.491Z,50.30
2023-01-19T03:48:19.333Z,42.37
2023-01-19T03:50:47.914Z,53.53
2023-01-19T03:53:18.304Z,73.53
2023-01-19T03:55:49.679Z,60.03
2023-01-19T03:58:19.241Z,47.90
2023-01-19T04:00:49.534Z,54.20
2023-01-19T04:03:19.864Z,55.53
2023-01-19T04:05:48.722Z,58.77
2023-01-19T04:08:17.305Z,57.60
2023-01-19T04:10:45.918Z,46.33
2023-01-19T04:13:15.584Z,46.67
2023-01-19T04:15:44.232Z,46.57
2023-01-19T04:18:14.269Z,55.07
2023-01-19T04:20:42.887Z,53.37
2023-01-19T04:23:13.042Z,43.00
2023-01-19T04:25:41.681Z,39.47
2023-01-19T04:28:10.287Z,49.63
2023-01-19T04:30:38.942Z,54.87
2023-01-19T04:33:07.530Z,41.17
2023-01-19T04:35:37.505Z,39.47
2023-01-19T04:38:06.981Z,38.27
2023-01-19T04:40:35.546Z,32.90
2023-01-19T04:43:04.424Z,37.70
2023-01-19T04:45:33.218Z,40.47
2023-01-19T04:48:02.015Z,39.67
2023-01-19T04:50:30.582Z,38.07
2023-01-19T04:53:01.087Z,35.03
2023-01-19T04:55:30.045Z,39.27
2023-01-19T04:57:58.651Z,37.70
2023-01-19T05:00:27.710Z,33.07
2023-01-19T05:02:56.530Z,35.60
2023-01-19T05:05:25.332Z,30.87
2023-01-19T05:07:53.986Z,42.67
2023-01-19T05:10:24.124Z,40.83
2023-01-19T05:12:53.637Z,36.63
2023-01-19T05:15:22.285Z,32.60
2023-01-19T05:17:51.090Z,39.43
2023-01-19T05:20:19.966Z,29.17
2023-01-19T05:22:51.943Z,36.43
2023-01-19T05:25:21.031Z,37.83
2023-01-19T05:27:51.110Z,35.37
2023-01-19T05:30:20.158Z,38.77
2023-01-19T05:32:48.788Z,38.00
2023-01-19T05:35:20.108Z,26.70
2023-01-19T05:37:54.548Z,28.70
2023-01-19T05:40:23.168Z,28.40
2023-01-19T05:42:53.488Z,32.63
2023-01-19T05:45:22.107Z,26.77
2023-01-19T05:47:51.133Z,31.10
2023-01-19T05:50:20.331Z,22.90
2023-01-19T05:52:48.918Z,22.50
2023-01-19T05:55:17.814Z,22.67
2023-01-19T05:57:46.517Z,19.63
2023-01-19T06:00:17.607Z,30.20
2023-01-19T06:02:49.450Z,29.10
2023-01-19T06:05:18.406Z,29.53
2023-01-19T06:07:47.100Z,23.00
2023-01-19T06:10:15.792Z,20.73
2023-01-19T06:12:44.495Z,21.33
2023-01-19T06:15:14.671Z,25.47
2023-01-19T06:17:44.725Z,25.57
2023-01-19T06:20:15.274Z,23.50
2023-01-19T06:22:44.038Z,31.47
2023-01-19T06:25:13.214Z,25.43
2023-01-19T06:27:45.715Z,20.80
2023-01-19T06:30:15.098Z,28.37
2023-01-19T06:32:45.121Z,20.10
2023-01-19T06:35:15.076Z,26.30
2023-01-19T06:37:43.656Z,30.30
2023-01-19T06:40:14.506Z,22.57
2023-01-19T06:42:43.468Z,34.00
2023-01-19T06:45:12.505Z,39.53
2023-01-19T06:47:41.232Z,23.57
2023-01-19T06:50:12.428Z,27.53
2023-01-19T06:52:42.868Z,33.10
2023-01-19T06:55:12.310Z,26.77
2023-01-19T06:57:41.096Z,28.00
2023-01-19T07:00:11.833Z,28.43
2023-01-19T07:02:43.824Z,25.90
2023-01-19T07:05:14.602Z,31.03
2023-01-19T07:07:46.166Z,34.27
2023-01-19T07:10:16.627Z,31.30
2023-01-19T07:12:46.609Z,30.33
2023-01-19T07:15:16.038Z,32.97
2023-01-19T07:17:45.061Z,30.63
2023-01-19T07:20:15.658Z,34.03
2023-01-19T07:22:45.913Z,32.93
2023-01-19T07:25:15.131Z,24.23
2023-01-19T07:27:45.113Z,31.07
2023-01-19T07:30:17.160Z,32.67
2023-01-19T07:32:45.840Z,31.53
2023-01-19T07:35:15.994Z,30.63
2023-01-19T07:37:44.708Z,32.90
2023-01-19T07:40:13.968Z,26.07
2023-01-19T07:42:48.769Z,26.73
2023-01-19T07:45:17.699Z,31.33
2023-01-19T07:47:46.343Z,29.40
2023-01-19T07:50:18.289Z,36.07
2023-01-19T07:52:47.005Z,33.40
2023-01-19T07:55:15.582Z,37.97
2023-01-19T07:57:44.251Z,30.97
2023-01-19T08:00:14.714Z,39.37
2023-01-19T08:02:44.176Z,34.93
2023-01-19T08:05:13.584Z,36.90
2023-01-19T08:07:45.210Z,33.03
2023-01-19T08:10:14.761Z,29.50
2023-01-19T08:12:43.484Z,30.77
2023-01-19T08:15:12.708Z,27.43
2023-01-19T08:17:41.311Z,31.30
2023-01-19T08:20:11.321Z,28.37
2023-01-19T08:22:39.923Z,37.97
2023-01-19T08:25:10.901Z,39.90
2023-01-19T08:27:39.516Z,38.73
2023-01-19T08:30:09.171Z,37.23
2023-01-19T08:32:37.839Z,36.77
2023-01-19T08:35:07.663Z,35.53
2023-01-19T08:37:36.284Z,40.90
2023-01-19T08:40:05.402Z,39.57
2023-01-19T08:42:35.462Z,36.70
2023-01-19T08:45:04.163Z,34.60
2023-01-19T08:47:32.795Z,39.83
2023-01-19T08:50:01.483Z,36.90
2023-01-19T08:52:30.813Z,38.67
2023-01-19T08:54:59.411Z,43.90
2023-01-19T08:57:29.350Z,46.80
2023-01-19T08:59:59.411Z,40.07
2023-01-19T09:02:28.037Z,50.97
2023-01-19T09:04:56.747Z,48.40
2023-01-19T09:07:25.944Z,44.23
2023-01-19T09:09:54.628Z,46.30
2023-01-19T09:12:23.222Z,48.67
2023-01-19T09:14:52.007Z,42.17
2023-01-19T09:17:22.174Z,45.87
2023-01-19T09:19:51.040Z,43.93
2023-01-19T09:22:19.649Z,42.00
2023-01-19T09:24:48.282Z,50.70
2023-01-19T09:27:16.902Z,47.17
2023-01-19T09:29:52.507Z,36.70
2023-01-19T09:32:23.203Z,50.93
2023-01-19T09:34:52.590Z,47.37
2023-01-19T09:37:21.289Z,54.90
2023-01-19T09:39:49.901Z,45.47
2023-01-19T09:42:25.536Z,41.40
2023-01-19T09:44:55.729Z,48.53
2023-01-19T09:47:29.774Z,43.27
2023-01-19T09:50:03.725Z,42.90
2023-01-19T09:52:36.503Z,30.83
2023-01-19T09:55:06.848Z,29.67
2023-01-19T09:57:36.367Z,20.07
2023-01-19T10:00:14.901Z,31.00
2023-01-19T10:02:49.840Z,22.10
2023-01-19T10:05:28.863Z,24.13
2023-01-19T10:08:10.534Z,25.43
2023-01-19T10:10:43.207Z,31.77
2023-01-19T10:13:29.040Z,22.17
2023-01-19T10:16:10.966Z,24.97
2023-01-19T10:18:47.906Z,31.43
2023-01-19T10:21:20.549Z,23.53
2023-01-19T10:23:53.519Z,25.40
2023-01-19T10:26:25.700Z,25.47
2023-01-19T10:28:59.188Z,31.70
2023-01-19T10:31:28.005Z,30.60
2023-01-19T10:33:58.564Z,39.13
2023-01-19T10:36:31.453Z,31.93
2023-01-19T10:39:00.177Z,31.73
2023-01-19T10:41:36.641Z,26.90
2023-01-19T10:44:07.281Z,22.90
2023-01-19T10:46:43.626Z,25.07
2023-01-19T10:49:26.889Z,34.00
2023-01-19T10:51:56.557Z,37.90
2023-01-19T10:54:27.265Z,29.03
2023-01-19T10:56:59.187Z,21.47
2023-01-19T10:59:36.829Z,24.03
2023-01-19T11:02:19.771Z,25.93
2023-01-19T11:04:53.197Z,32.20
2023-01-19T11:07:24.006Z,41.97
2023-01-19T11:10:21.395Z,30.37
2023-01-19T11:13:01.525Z,27.27
2023-01-19T11:15:34.918Z,40.10
2023-01-19T11:18:06.124Z,28.20
2023-01-19T11:20:49.366Z,32.63
2023-01-19T11:23:26.309Z,30.53
2023-01-19T11:25:57.538Z,33.27
2023-01-19T11:28:30.944Z,43.30
2023-01-19T11:31:02.383Z,29.53
2023-01-19T11:33:37.503Z,32.73
2023-01-19T11:36:16.723Z,42.77
2023-01-19T11:38:46.890Z,31.30
2023-01-19T11:41:19.985Z,39.73
2023-01-19T11:43:51.482Z,38.50
2023-01-19T11:46:21.093Z,36.03
2023-01-19T11:48:58.231Z,32.73
2023-01-19T11:51:32.035Z,41.40
2023-01-19T11:54:04.101Z,52.13
2023-01-19T11:56:33.799Z,41.63
2023-01-19T11:59:05.178Z,37.73
2023-01-19T12:01:38.756Z,41.03
2023-01-19T12:04:13.292Z,31.60
2023-01-19T12:06:47.902Z,38.13
2023-01-19T12:09:20.953Z,39.47
2023-01-19T12:11:54.989Z,29.47
2023-01-19T12:14:27.232Z,23.77
2023-01-19T12:17:01.664Z,18.23
2023-01-19T12:19:42.128Z,16.00
2023-01-19T12:22:17.093Z,22.23
2023-01-19T12:24:50.830Z,19.10
2023-01-19T12:27:28.392Z,16.60
2023-01-19T12:29:58.044Z,18.67
2023-01-19T12:32:34.997Z,19.30
2023-01-19T12:35:03.800Z,15.97
2023-01-19T12:37:44.822Z,14.80
2023-01-19T12:40:27.324Z,22.63
2023-01-19T12:43:03.995Z,12.70
2023-01-19T12:45:34.803Z,15.50
2023-01-19T12:48:05.024Z,15.43
2023-01-19T12:50:38.052Z,16.50
2023-01-19T12:53:19.912Z,22.17
2023-01-19T12:56:00.197Z,15.10
2023-01-19T12:58:29.318Z,16.37
2023-01-19T13:01:16.744Z,22.27
2023-01-19T13:03:59.803Z,13.83
2023-01-19T13:07:06.267Z,18.53
2023-01-19T13:09:37.499Z,18.90
2023-01-19T13:12:23.340Z,17.97
2023-01-19T13:14:52.164Z,13.23
2023-01-19T13:17:34.487Z,17.70
2023-01-19T13:20:25.030Z,13.53
2023-01-19T13:23:17.507Z,17.63
2023-01-19T13:25:54.113Z,20.00
2023-01-19T13:28:31.826Z,16.63
2023-01-19T13:31:02.892Z,15.30
2023-01-19T13:33:41.185Z,22.07
2023-01-19T13:36:27.023Z,19.47
2023-01-19T13:38:58.175Z,12.17
2023-01-19T13:41:31.831Z,17.83
2023-01-19T13:44:06.738Z,17.70
2023-01-19T13:46:38.731Z,10.90
2023-01-19T13:49:16.924Z,13.90
2023-01-19T13:51:45.687Z,8.57
2023-01-19T13:54:17.872Z,8.57
2023-01-19T13:56:51.308Z,11.97
2023-01-19T13:59:20.519Z,13.87
2023-01-19T14:01:51.197Z,13.70
2023-01-19T14:04:29.614Z,12.23
2023-01-19T14:07:02.053Z,9.43
2023-01-19T14:09:30.980Z,12.27
2023-01-19T14:12:25.910Z,12.70
2023-01-19T14:14:54.833Z,13.17
2023-01-19T14:17:25.914Z,12.93
2023-01-19T14:19:56.519Z,20.50
2023-01-19T14:22:39.889Z,14.87
2023-01-19T14:25:30.389Z,14.80
2023-01-19T14:28:29.895Z,16.47
2023-01-19T14:31:00.440Z,17.57
2023-01-19T14:33:36.809Z,17.97
2023-01-19T14:36:33.415Z,17.40
2023-01-19T14:39:03.231Z,12.73
2023-01-19T14:41:39.159Z,17.30
2023-01-19T14:44:13.322Z,17.00
2023-01-19T14:46:48.484Z,15.73
2023-01-19T14:49:23.079Z,16.77
2023-01-19T14:51:52.283Z,15.77
2023-01-19T14:54:28.942Z,18.27
2023-01-19T14:56:57.669Z,17.80
2023-01-19T14:59:28.009Z,16.03
2023-01-19T15:01:56.869Z,17.87
2023-01-19T15:04:26.228Z,17.17
2023-01-19T15:06:56.221Z,12.17
2023-01-19T15:09:25.560Z,18.37
2023-01-19T15:11:55.032Z,14.10
2023-01-19T15:14:23.871Z,12.13
2023-01-19T15:16:53.987Z,16.40
2023-01-19T15:19:22.560Z,15.23
2023-01-19T15:21:51.155Z,12.23
2023-01-19T15:24:19.892Z,15.30
2023-01-19T15:26:48.702Z,13.47
2023-01-19T15:29:26.510Z,12.70
2023-01-19T15:31:56.677Z,17.17
2023-01-19T15:34:25.346Z,11.80
2023-01-19T15:36:54.033Z,14.20
2023-01-19T15:39:22.635Z,13.87
2023-01-19T15:41:51.319Z,19.13
2023-01-19T15:44:20.461Z,10.87
2023-01-19T15:46:49.173Z,12.80
2023-01-19T15:49:19.255Z,13.03
2023-01-19T15:51:47.973Z,19.17
2023-01-19T15:54:18.295Z,9.00
2023-01-19T15:56:47.288Z,13.60
2023-01-19T15:59:15.913Z,14.40
2023-01-19T16:01:44.824Z,15.23
2023-01-19T16:04:13.522Z,13.67
2023-01-19T16:06:43.702Z,15.87
2023-01-19T16:09:18.845Z,13.70
2023-01-19T16:11:47.878Z,11.10
2023-01-19T16:14:17.644Z,12.50
2023-01-19T16:16:46.569Z,17.60
2023-01-19T16:19:16.732Z,13.60
2023-01-19T16:21:46.856Z,12.90
2023-01-19T16:24:15.414Z,11.60
2023-01-19T16:26:46.287Z,16.50
2023-01-19T16:29:15.349Z,23.70
2023-01-19T16:31:45.745Z,13.30
2023-01-19T16:34:14.649Z,11.03
2023-01-19T16:36:44.088Z,16.23
2023-01-19T16:39:15.587Z,14.30
2023-01-19T16:41:45.811Z,18.23
2023-01-19T16:44:15.662Z,25.00
2023-01-19T16:46:46.154Z,13.83
2023-01-19T16:49:16.772Z,23.53
2023-01-19T16:51:45.907Z,14.17
2023-01-19T16:54:16.897Z,19.03
2023-01-19T16:56:45.705Z,16.70
2023-01-19T16:59:16.342Z,11.10
2023-01-19T17:01:46.678Z,13.50
2023-01-19T17:04:15.875Z,15.10
2023-01-19T17:06:44.648Z,16.97
2023-01-19T17:09:13.359Z,12.63
2023-01-19T17:11:43.793Z,13.57
2023-01-19T17:14:14.886Z,18.10
2023-01-19T17:16:44.369Z,13.90
2023-01-19T17:19:16.640Z,18.77
2023-01-19T17:21:46.830Z,14.53
2023-01-19T17:24:15.559Z,19.27
2023-01-19T17:26:48.812Z,16.63
2023-01-19T17:29:18.314Z,14.10
2023-01-19T17:31:47.198Z,12.57
2023-01-19T17:34:15.899Z,14.23
2023-01-19T17:36:44.945Z,17.00
2023-01-19T17:39:15.120Z,20.40
2023-01-19T17:41:45.363Z,19.53
2023-01-19T17:44:14.003Z,14.27
2023-01-19T17:46:42.654Z,22.13
2023-01-19T17:49:12.652Z,20.47
2023-01-19T17:51:41.337Z,15.13
2023-01-19T17:54:10.893Z,12.53
2023-01-19T17:56:41.463Z,15.83
2023-01-19T17:59:11.604Z,12.23
2023-01-19T18:01:40.844Z,16.03
2023-01-19T18:04:10.240Z,12.80
2023-01-19T18:06:39.188Z,14.03
2023-01-19T18:09:08.201Z,15.07
2023-01-19T18:11:37.373Z,11.77
2023-01-19T18:14:06.865Z,17.83
2023-01-19T18:16:37.218Z,19.53
2023-01-19T18:19:05.884Z,13.70
2023-01-19T18:21:34.450Z,16.30
2023-01-19T18:24:05.660Z,17.30
2023-01-19T18:26:35.851Z,19.80
2023-01-19T18:29:04.545Z,17.93
2023-01-19T18:31:33.191Z,24.80
2023-01-19T18:34:03.408Z,11.70
2023-01-19T18:36:47.288Z,12.67
2023-01-19T18:39:15.958Z,12.17
2023-01-19T18:41:44.609Z,14.20
2023-01-19T18:44:14.196Z,11.27
2023-01-19T18:46:43.054Z,15.93
2023-01-19T18:49:13.197Z,15.90
2023-01-19T18:51:42.129Z,12.73
2023-01-19T18:54:12.655Z,17.37
2023-01-19T18:56:41.337Z,11.13
2023-01-19T18:59:10.896Z,14.20
2023-01-19T19:01:39.668Z,13.13
2023-01-19T19:04:08.673Z,15.97
2023-01-19T19:06:38.718Z,12.40
2023-01-19T19:09:07.520Z,14.97
2023-01-19T19:11:36.604Z,10.70
2023-01-19T19:14:05.439Z,17.10
2023-01-19T19:16:36.179Z,14.53
2023-01-19T19:19:06.142Z,8.30
2023-01-19T19:21:34.781Z,13.93
2023-01-19T19:24:06.764Z,11.57
2023-01-19T19:26:35.663Z,10.90
2023-01-19T19:29:04.745Z,10.00
2023-01-19T19:31:33.767Z,15.37
2023-01-19T19:34:02.542Z,8.57
2023-01-19T19:36:33.565Z,11.93
2023-01-19T19:39:02.325Z,11.60
2023-01-19T19:41:32.778Z,14.27
2023-01-19T19:44:01.798Z,10.17
2023-01-19T19:46:30.574Z,12.57
2023-01-19T19:48:59.349Z,12.50
2023-01-19T19:51:29.418Z,11.80
2023-01-19T19:54:00.045Z,13.90
2023-01-19T19:56:30.248Z,12.83
2023-01-19T19:59:02.956Z,8.57
2023-01-19T20:01:33.918Z,11.77
2023-01-19T20:04:08.524Z,16.17
2023-01-19T20:06:39.949Z,12.30
2023-01-19T20:09:12.865Z,8.60
2023-01-19T20:11:42.315Z,11.97
2023-01-19T20:14:14.095Z,11.70
2023-01-19T20:16:43.169Z,10.90
2023-01-19T20:19:11.812Z,9.13
2023-01-19T20:21:42.951Z,8.37
2023-01-19T20:24:14.745Z,14.60
2023-01-19T20:26:47.225Z,8.10
2023-01-19T20:29:18.057Z,15.13
2023-01-19T20:31:48.883Z,12.80
2023-01-19T20:34:19.806Z,12.27
2023-01-19T20:36:50.386Z,10.97
2023-01-19T20:39:21.771Z,9.10
2023-01-19T20:41:51.464Z,11.60
2023-01-19T20:44:26.884Z,15.13
2023-01-19T20:46:56.893Z,10.83
2023-01-19T20:49:26.793Z,9.20
2023-01-19T20:51:55.682Z,9.43
2023-01-19T20:54:28.026Z,12.77
2023-01-19T20:56:57.573Z,8.53
2023-01-19T20:59:28.128Z,9.80
2023-01-19T21:01:57.009Z,13.23
2023-01-19T21:04:26.276Z,11.40
2023-01-19T21:06:55.918Z,12.13
2023-01-19T21:09:24.837Z,7.33
2023-01-19T21:11:56.550Z,8.10
2023-01-19T21:14:28.247Z,8.13
2023-01-19T21:16:58.898Z,11.33
2023-01-19T21:19:29.007Z,8.27
2023-01-19T21:21:58.742Z,8.50
2023-01-19T21:24:29.535Z,5.13
2023-01-19T21:26:59.486Z,5.90
2023-01-19T21:29:31.201Z,10.17
2023-01-19T21:32:01.292Z,10.40
2023-01-19T21:34:30.776Z,8.13
2023-01-19T21:37:00.228Z,8.43
2023-01-19T21:39:29.344Z,4.57
2023-01-19T21:41:58.239Z,5.33
2023-01-19T21:44:27.044Z,4.97
2023-01-19T21:46:57.532Z,5.40
2023-01-19T21:49:26.330Z,8.73
2023-01-19T21:51:55.475Z,2.50
2023-01-19T21:54:25.077Z,4.00
2023-01-19T21:56:53.869Z,8.63
2023-01-19T21:59:22.901Z,8.60
2023-01-19T22:01:51.605Z,6.97
2023-01-19T22:04:22.369Z,4.43
2023-01-19T22:06:51.208Z,2.83
2023-01-19T22:09:19.812Z,1.97
2023-01-19T22:11:48.553Z,1.63
2023-01-19T22:14:17.157Z,1.77
2023-01-19T22:16:45.884Z,1.37
2023-01-19T22:19:14.617Z,3.03
2023-01-19T22:21:44.638Z,2.10
2023-01-19T22:24:13.709Z,1.23
2023-01-19T22:26:42.337Z,0.63
2023-01-19T22:29:12.156Z,0.97
2023-01-19T22:31:41.171Z,0.50
2023-01-19T22:34:10.958Z,0.40
2023-01-19T22:36:39.948Z,1.10
2023-01-19T22:39:11.390Z,1.77
2023-01-19T22:41:43.215Z,0.67
2023-01-19T22:44:14.385Z,1.80
2023-01-19T22:46:43.666Z,2.53
2023-01-19T22:49:14.954Z,2.30
2023-01-19T22:51:44.038Z,1.33
2023-01-19T22:54:14.442Z,2.27
2023-01-19T22:56:43.805Z,2.30
2023-01-19T22:59:12.618Z,1.63
2023-01-19T23:01:43.292Z,1.00
2023-01-19T23:04:14.557Z,0.40
2023-01-19T23:06:43.994Z,1.43
2023-01-19T23:09:15.517Z,0.60
2023-01-19T23:11:48.593Z,2.30
2023-01-19T23:14:19.389Z,1.23
2023-01-19T23:16:48.421Z,0.70
2023-01-19T23:19:18.298Z,0.70
2023-01-19T23:21:47.418Z,1.00
2023-01-19T23:24:17.527Z,2.33
2023-01-19T23:26:46.135Z,3.60
2023-01-19T23:29:18.139Z,2.37
2023-01-19T23:31:48.552Z,0.93
2023-01-19T23:34:17.616Z,2.03
2023-01-19T23:36:46.633Z,1.90
2023-01-19T23:39:18.142Z,0.90
2023-01-19T23:41:47.071Z,0.37
2023-01-19T23:44:15.991Z,2.00
2023-01-19T23:46:45.164Z,0.87
2023-01-19T23:49:13.810Z,0.53
2023-01-19T23:51:42.907Z,1.03
2023-01-19T23:54:12.406Z,1.00
2023-01-19T23:56:43.451Z,1.57
2023-01-19T23:59:13.662Z,1.13
